sensor_id;sensor_type;location;lat;lon;timestamp;temperature;humidity
69382;DHT22;56560;50.692;12.844;2023-04-25T00:02:06;5.80;81.70
69382;DHT22;56560;50.692;12.844;2023-04-25T00:04:32;5.80;82.20
69382;DHT22;56560;50.692;12.844;2023-04-25T00:06:59;5.70;81.60
69382;DHT22;56560;50.692;12.844;2023-04-25T00:09:27;5.60;81.50
69382;DHT22;56560;50.692;12.844;2023-04-25T00:11:53;5.50;82.30
69382;DHT22;56560;50.692;12.844;2023-04-25T00:14:18;5.50;82.50
69382;DHT22;56560;50.692;12.844;2023-04-25T00:16:44;5.40;83.10
69382;DHT22;56560;50.692;12.844;2023-04-25T00:19:10;5.40;83.40
69382;DHT22;56560;50.692;12.844;2023-04-25T00:21:36;5.40;83.70
69382;DHT22;56560;50.692;12.844;2023-04-25T00:24:03;5.40;83.80
69382;DHT22;56560;50.692;12.844;2023-04-25T00:26:29;5.30;83.70
69382;DHT22;56560;50.692;12.844;2023-04-25T00:28:54;5.30;82.70
69382;DHT22;56560;50.692;12.844;2023-04-25T00:31:21;5.20;83.70
69382;DHT22;56560;50.692;12.844;2023-04-25T00:33:47;5.20;82.90
69382;DHT22;56560;50.692;12.844;2023-04-25T00:36:13;5.10;83.90
69382;DHT22;56560;50.692;12.844;2023-04-25T00:38:40;5.10;84.10
69382;DHT22;56560;50.692;12.844;2023-04-25T00:41:08;5.10;84.00
69382;DHT22;56560;50.692;12.844;2023-04-25T00:43:36;5.10;84.10
69382;DHT22;56560;50.692;12.844;2023-04-25T00:46:02;5.10;83.80
69382;DHT22;56560;50.692;12.844;2023-04-25T00:48:27;5.10;84.00
69382;DHT22;56560;50.692;12.844;2023-04-25T00:50:55;5.20;84.10
69382;DHT22;56560;50.692;12.844;2023-04-25T00:53:23;5.40;84.10
69382;DHT22;56560;50.692;12.844;2023-04-25T00:55:49;5.60;84.00
69382;DHT22;56560;50.692;12.844;2023-04-25T00:58:20;5.70;83.10
69382;DHT22;56560;50.692;12.844;2023-04-25T01:00:46;5.90;83.10
69382;DHT22;56560;50.692;12.844;2023-04-25T01:03:17;6.00;82.50
69382;DHT22;56560;50.692;12.844;2023-04-25T01:05:45;6.00;82.10
69382;DHT22;56560;50.692;12.844;2023-04-25T01:08:12;6.10;82.10
69382;DHT22;56560;50.692;12.844;2023-04-25T01:10:37;6.10;82.40
69382;DHT22;56560;50.692;12.844;2023-04-25T01:13:03;6.20;81.90
69382;DHT22;56560;50.692;12.844;2023-04-25T01:15:29;6.20;81.50
69382;DHT22;56560;50.692;12.844;2023-04-25T01:17:55;6.30;81.60
69382;DHT22;56560;50.692;12.844;2023-04-25T01:20:22;6.40;81.20
69382;DHT22;56560;50.692;12.844;2023-04-25T01:22:49;6.50;81.20
69382;DHT22;56560;50.692;12.844;2023-04-25T01:25:15;6.50;81.50
69382;DHT22;56560;50.692;12.844;2023-04-25T01:27:41;6.60;80.90
69382;DHT22;56560;50.692;12.844;2023-04-25T01:30:07;6.70;80.80
69382;DHT22;56560;50.692;12.844;2023-04-25T01:32:33;6.80;80.30
69382;DHT22;56560;50.692;12.844;2023-04-25T01:35:05;6.90;80.50
69382;DHT22;56560;50.692;12.844;2023-04-25T01:37:38;7.00;80.50
69382;DHT22;56560;50.692;12.844;2023-04-25T01:40:05;7.10;79.70
69382;DHT22;56560;50.692;12.844;2023-04-25T01:42:32;7.10;78.90
69382;DHT22;56560;50.692;12.844;2023-04-25T01:44:59;7.20;79.00
69382;DHT22;56560;50.692;12.844;2023-04-25T01:47:24;7.30;78.60
69382;DHT22;56560;50.692;12.844;2023-04-25T01:49:50;7.30;78.30
69382;DHT22;56560;50.692;12.844;2023-04-25T01:52:16;7.40;78.40
69382;DHT22;56560;50.692;12.844;2023-04-25T01:54:42;7.50;77.80
69382;DHT22;56560;50.692;12.844;2023-04-25T01:57:10;7.50;77.40
69382;DHT22;56560;50.692;12.844;2023-04-25T01:59:36;7.50;77.60
69382;DHT22;56560;50.692;12.844;2023-04-25T02:02:02;7.60;77.80
69382;DHT22;56560;50.692;12.844;2023-04-25T02:04:31;7.70;77.20
69382;DHT22;56560;50.692;12.844;2023-04-25T02:06:56;7.70;77.20
69382;DHT22;56560;50.692;12.844;2023-04-25T02:09:22;7.70;78.00
69382;DHT22;56560;50.692;12.844;2023-04-25T02:11:48;7.70;76.80
69382;DHT22;56560;50.692;12.844;2023-04-25T02:14:14;7.70;77.20
69382;DHT22;56560;50.692;12.844;2023-04-25T02:16:40;7.80;77.20
69382;DHT22;56560;50.692;12.844;2023-04-25T02:19:06;7.80;77.50
69382;DHT22;56560;50.692;12.844;2023-04-25T02:21:32;7.80;76.40
69382;DHT22;56560;50.692;12.844;2023-04-25T02:23:57;7.80;76.80
69382;DHT22;56560;50.692;12.844;2023-04-25T02:26:23;7.80;76.40
69382;DHT22;56560;50.692;12.844;2023-04-25T02:28:50;7.80;77.00
69382;DHT22;56560;50.692;12.844;2023-04-25T02:31:16;7.80;76.80
69382;DHT22;56560;50.692;12.844;2023-04-25T02:33:42;7.80;77.60
69382;DHT22;56560;50.692;12.844;2023-04-25T02:36:08;7.80;76.00
69382;DHT22;56560;50.692;12.844;2023-04-25T02:38:34;7.80;77.20
69382;DHT22;56560;50.692;12.844;2023-04-25T02:40:59;7.80;76.50
69382;DHT22;56560;50.692;12.844;2023-04-25T02:43:25;7.80;76.50
69382;DHT22;56560;50.692;12.844;2023-04-25T02:45:51;7.80;77.20
69382;DHT22;56560;50.692;12.844;2023-04-25T02:48:16;7.80;76.90
69382;DHT22;56560;50.692;12.844;2023-04-25T02:50:42;7.80;77.60
69382;DHT22;56560;50.692;12.844;2023-04-25T02:53:08;7.80;78.10
69382;DHT22;56560;50.692;12.844;2023-04-25T02:55:33;7.70;78.60
69382;DHT22;56560;50.692;12.844;2023-04-25T02:57:59;7.60;76.90
69382;DHT22;56560;50.692;12.844;2023-04-25T03:00:25;7.60;77.90
69382;DHT22;56560;50.692;12.844;2023-04-25T03:02:51;7.50;77.60
69382;DHT22;56560;50.692;12.844;2023-04-25T03:05:17;7.50;78.70
69382;DHT22;56560;50.692;12.844;2023-04-25T03:07:43;7.50;79.00
69382;DHT22;56560;50.692;12.844;2023-04-25T03:10:09;7.40;79.30
69382;DHT22;56560;50.692;12.844;2023-04-25T03:12:35;7.40;79.00
69382;DHT22;56560;50.692;12.844;2023-04-25T03:15:01;7.40;76.00
69382;DHT22;56560;50.692;12.844;2023-04-25T03:17:27;7.40;78.00
69382;DHT22;56560;50.692;12.844;2023-04-25T03:19:53;7.40;77.80
69382;DHT22;56560;50.692;12.844;2023-04-25T03:22:18;7.30;79.00
69382;DHT22;56560;50.692;12.844;2023-04-25T03:24:46;7.30;78.90
69382;DHT22;56560;50.692;12.844;2023-04-25T03:27:12;7.30;80.10
69382;DHT22;56560;50.692;12.844;2023-04-25T03:29:38;7.30;79.90
69382;DHT22;56560;50.692;12.844;2023-04-25T03:32:04;7.40;79.30
69382;DHT22;56560;50.692;12.844;2023-04-25T03:34:30;7.30;78.80
69382;DHT22;56560;50.692;12.844;2023-04-25T03:36:55;7.30;79.60
69382;DHT22;56560;50.692;12.844;2023-04-25T03:39:21;7.30;79.60
69382;DHT22;56560;50.692;12.844;2023-04-25T03:41:47;7.40;79.00
69382;DHT22;56560;50.692;12.844;2023-04-25T03:44:13;7.40;78.50
69382;DHT22;56560;50.692;12.844;2023-04-25T03:46:38;7.30;79.60
69382;DHT22;56560;50.692;12.844;2023-04-25T03:49:04;7.40;79.40
69382;DHT22;56560;50.692;12.844;2023-04-25T03:51:29;7.40;79.40
69382;DHT22;56560;50.692;12.844;2023-04-25T03:53:56;7.40;79.10
69382;DHT22;56560;50.692;12.844;2023-04-25T03:56:22;7.40;79.60
69382;DHT22;56560;50.692;12.844;2023-04-25T03:58:47;7.40;79.10
69382;DHT22;56560;50.692;12.844;2023-04-25T04:01:13;7.40;78.70
69382;DHT22;56560;50.692;12.844;2023-04-25T04:03:39;7.40;78.30
69382;DHT22;56560;50.692;12.844;2023-04-25T04:06:05;7.50;78.00
69382;DHT22;56560;50.692;12.844;2023-04-25T04:08:32;7.50;78.30
69382;DHT22;56560;50.692;12.844;2023-04-25T04:10:58;7.50;77.60
69382;DHT22;56560;50.692;12.844;2023-04-25T04:13:26;7.50;76.70
69382;DHT22;56560;50.692;12.844;2023-04-25T04:15:52;7.50;75.80
69382;DHT22;56560;50.692;12.844;2023-04-25T04:18:23;7.50;75.00
69382;DHT22;56560;50.692;12.844;2023-04-25T04:20:48;7.60;75.90
69382;DHT22;56560;50.692;12.844;2023-04-25T04:23:14;7.60;76.50
69382;DHT22;56560;50.692;12.844;2023-04-25T04:25:40;7.60;76.80
69382;DHT22;56560;50.692;12.844;2023-04-25T04:28:06;7.60;75.40
69382;DHT22;56560;50.692;12.844;2023-04-25T04:30:33;7.70;75.50
69382;DHT22;56560;50.692;12.844;2023-04-25T04:33:02;7.70;76.10
69382;DHT22;56560;50.692;12.844;2023-04-25T04:35:28;7.70;76.30
69382;DHT22;56560;50.692;12.844;2023-04-25T04:37:53;7.80;76.00
69382;DHT22;56560;50.692;12.844;2023-04-25T04:40:20;7.90;75.30
69382;DHT22;56560;50.692;12.844;2023-04-25T04:42:45;8.00;75.60
69382;DHT22;56560;50.692;12.844;2023-04-25T04:45:11;8.10;75.80
69382;DHT22;56560;50.692;12.844;2023-04-25T04:47:37;8.10;75.70
69382;DHT22;56560;50.692;12.844;2023-04-25T04:50:06;8.20;75.10
69382;DHT22;56560;50.692;12.844;2023-04-25T04:52:34;8.20;76.00
69382;DHT22;56560;50.692;12.844;2023-04-25T04:55:00;8.10;76.10
69382;DHT22;56560;50.692;12.844;2023-04-25T04:57:25;8.10;76.80
69382;DHT22;56560;50.692;12.844;2023-04-25T04:59:52;8.00;77.40
69382;DHT22;56560;50.692;12.844;2023-04-25T05:02:17;8.00;76.50
69382;DHT22;56560;50.692;12.844;2023-04-25T05:04:43;8.10;76.20
69382;DHT22;56560;50.692;12.844;2023-04-25T05:07:08;8.10;76.70
69382;DHT22;56560;50.692;12.844;2023-04-25T05:09:35;8.20;77.20
69382;DHT22;56560;50.692;12.844;2023-04-25T05:12:00;8.20;76.50
69382;DHT22;56560;50.692;12.844;2023-04-25T05:14:26;8.20;77.10
69382;DHT22;56560;50.692;12.844;2023-04-25T05:16:52;8.30;77.00
69382;DHT22;56560;50.692;12.844;2023-04-25T05:19:17;8.30;76.60
69382;DHT22;56560;50.692;12.844;2023-04-25T05:21:43;8.40;75.40
69382;DHT22;56560;50.692;12.844;2023-04-25T05:24:09;8.40;75.50
69382;DHT22;56560;50.692;12.844;2023-04-25T05:26:35;8.50;75.30
69382;DHT22;56560;50.692;12.844;2023-04-25T05:29:00;8.70;75.20
69382;DHT22;56560;50.692;12.844;2023-04-25T05:31:26;8.90;74.00
69382;DHT22;56560;50.692;12.844;2023-04-25T05:33:52;8.90;73.00
69382;DHT22;56560;50.692;12.844;2023-04-25T05:36:20;8.90;71.70
69382;DHT22;56560;50.692;12.844;2023-04-25T05:38:46;8.70;72.00
69382;DHT22;56560;50.692;12.844;2023-04-25T05:41:12;8.70;71.20
69382;DHT22;56560;50.692;12.844;2023-04-25T05:43:38;8.80;72.10
69382;DHT22;56560;50.692;12.844;2023-04-25T05:46:03;9.00;71.40
69382;DHT22;56560;50.692;12.844;2023-04-25T05:48:29;9.30;68.80
69382;DHT22;56560;50.692;12.844;2023-04-25T05:50:55;9.60;67.70
69382;DHT22;56560;50.692;12.844;2023-04-25T05:53:21;9.70;66.90
69382;DHT22;56560;50.692;12.844;2023-04-25T05:55:47;9.60;65.10
69382;DHT22;56560;50.692;12.844;2023-04-25T05:58:13;9.50;65.00
69382;DHT22;56560;50.692;12.844;2023-04-25T06:00:38;9.50;66.00
69382;DHT22;56560;50.692;12.844;2023-04-25T06:03:04;9.50;64.60
69382;DHT22;56560;50.692;12.844;2023-04-25T06:05:30;9.60;64.70
69382;DHT22;56560;50.692;12.844;2023-04-25T06:07:56;9.80;65.50
69382;DHT22;56560;50.692;12.844;2023-04-25T06:10:21;9.80;64.20
69382;DHT22;56560;50.692;12.844;2023-04-25T06:12:48;9.90;63.30
69382;DHT22;56560;50.692;12.844;2023-04-25T06:15:13;9.80;64.00
69382;DHT22;56560;50.692;12.844;2023-04-25T06:17:39;9.80;64.10
69382;DHT22;56560;50.692;12.844;2023-04-25T06:20:05;9.60;63.30
69382;DHT22;56560;50.692;12.844;2023-04-25T06:22:31;9.30;66.60
69382;DHT22;56560;50.692;12.844;2023-04-25T06:24:57;9.00;66.10
69382;DHT22;56560;50.692;12.844;2023-04-25T06:27:24;8.80;67.60
69382;DHT22;56560;50.692;12.844;2023-04-25T06:29:50;8.70;69.10
69382;DHT22;56560;50.692;12.844;2023-04-25T06:32:15;8.50;65.80
69382;DHT22;56560;50.692;12.844;2023-04-25T06:34:43;8.10;68.20
69382;DHT22;56560;50.692;12.844;2023-04-25T06:37:09;7.80;70.30
69382;DHT22;56560;50.692;12.844;2023-04-25T06:39:34;7.60;70.80
69382;DHT22;56560;50.692;12.844;2023-04-25T06:42:00;7.30;72.20
69382;DHT22;56560;50.692;12.844;2023-04-25T06:44:26;7.00;75.70
69382;DHT22;56560;50.692;12.844;2023-04-25T06:46:51;6.90;75.70
69382;DHT22;56560;50.692;12.844;2023-04-25T06:49:17;6.80;77.40
69382;DHT22;56560;50.692;12.844;2023-04-25T06:51:43;6.70;76.90
69382;DHT22;56560;50.692;12.844;2023-04-25T06:54:08;6.70;77.80
69382;DHT22;56560;50.692;12.844;2023-04-25T06:56:34;6.60;78.20
69382;DHT22;56560;50.692;12.844;2023-04-25T06:59:00;6.60;79.40
69382;DHT22;56560;50.692;12.844;2023-04-25T07:01:26;6.50;79.80
69382;DHT22;56560;50.692;12.844;2023-04-25T07:03:51;6.50;81.20
69382;DHT22;56560;50.692;12.844;2023-04-25T07:06:17;6.50;80.90
69382;DHT22;56560;50.692;12.844;2023-04-25T07:08:43;6.40;81.70
69382;DHT22;56560;50.692;12.844;2023-04-25T07:11:08;6.40;80.60
69382;DHT22;56560;50.692;12.844;2023-04-25T07:13:34;6.40;79.60
69382;DHT22;56560;50.692;12.844;2023-04-25T07:16:00;6.30;80.80
69382;DHT22;56560;50.692;12.844;2023-04-25T07:18:25;6.40;78.80
69382;DHT22;56560;50.692;12.844;2023-04-25T07:20:51;6.50;79.50
69382;DHT22;56560;50.692;12.844;2023-04-25T07:23:17;6.60;76.60
69382;DHT22;56560;50.692;12.844;2023-04-25T07:25:43;6.60;79.10
69382;DHT22;56560;50.692;12.844;2023-04-25T07:28:08;6.70;77.90
69382;DHT22;56560;50.692;12.844;2023-04-25T07:30:37;7.00;78.50
69382;DHT22;56560;50.692;12.844;2023-04-25T07:33:02;7.30;76.40
69382;DHT22;56560;50.692;12.844;2023-04-25T07:35:28;7.80;74.50
69382;DHT22;56560;50.692;12.844;2023-04-25T07:37:54;8.30;73.30
69382;DHT22;56560;50.692;12.844;2023-04-25T07:40:22;8.70;70.40
69382;DHT22;56560;50.692;12.844;2023-04-25T07:42:48;9.00;70.00
69382;DHT22;56560;50.692;12.844;2023-04-25T07:45:14;9.00;70.50
69382;DHT22;56560;50.692;12.844;2023-04-25T07:47:39;8.90;70.70
69382;DHT22;56560;50.692;12.844;2023-04-25T07:50:05;8.90;69.90
69382;DHT22;56560;50.692;12.844;2023-04-25T07:52:32;8.70;70.80
69382;DHT22;56560;50.692;12.844;2023-04-25T07:54:57;8.70;71.40
69382;DHT22;56560;50.692;12.844;2023-04-25T07:57:24;9.20;70.90
69382;DHT22;56560;50.692;12.844;2023-04-25T07:59:49;9.60;68.50
69382;DHT22;56560;50.692;12.844;2023-04-25T08:02:15;9.70;68.10
69382;DHT22;56560;50.692;12.844;2023-04-25T08:04:41;9.60;68.00
69382;DHT22;56560;50.692;12.844;2023-04-25T08:07:06;9.70;68.40
69382;DHT22;56560;50.692;12.844;2023-04-25T08:09:32;9.70;67.70
69382;DHT22;56560;50.692;12.844;2023-04-25T08:12:02;9.30;68.70
69382;DHT22;56560;50.692;12.844;2023-04-25T08:14:28;9.20;69.40
69382;DHT22;56560;50.692;12.844;2023-04-25T08:16:56;9.40;69.80
69382;DHT22;56560;50.692;12.844;2023-04-25T08:19:22;9.40;68.30
69382;DHT22;56560;50.692;12.844;2023-04-25T08:21:54;9.90;66.00
69382;DHT22;56560;50.692;12.844;2023-04-25T08:24:21;10.00;66.00
69382;DHT22;56560;50.692;12.844;2023-04-25T08:26:46;10.00;65.30
69382;DHT22;56560;50.692;12.844;2023-04-25T08:29:12;10.10;64.80
69382;DHT22;56560;50.692;12.844;2023-04-25T08:31:38;10.10;64.40
69382;DHT22;56560;50.692;12.844;2023-04-25T08:34:03;10.10;64.20
69382;DHT22;56560;50.692;12.844;2023-04-25T08:36:29;10.10;63.40
69382;DHT22;56560;50.692;12.844;2023-04-25T08:38:58;10.00;64.30
69382;DHT22;56560;50.692;12.844;2023-04-25T08:41:24;9.80;62.50
69382;DHT22;56560;50.692;12.844;2023-04-25T08:43:51;9.80;62.90
69382;DHT22;56560;50.692;12.844;2023-04-25T08:46:18;9.70;62.50
69382;DHT22;56560;50.692;12.844;2023-04-25T08:48:45;9.70;62.60
69382;DHT22;56560;50.692;12.844;2023-04-25T08:51:17;9.50;65.00
69382;DHT22;56560;50.692;12.844;2023-04-25T08:53:49;9.30;65.90
69382;DHT22;56560;50.692;12.844;2023-04-25T08:56:16;9.40;66.30
69382;DHT22;56560;50.692;12.844;2023-04-25T08:58:44;9.60;65.70
69382;DHT22;56560;50.692;12.844;2023-04-25T09:01:11;9.70;65.70
69382;DHT22;56560;50.692;12.844;2023-04-25T09:03:38;9.80;63.40
69382;DHT22;56560;50.692;12.844;2023-04-25T09:06:04;9.90;64.00
69382;DHT22;56560;50.692;12.844;2023-04-25T09:08:30;9.90;63.40
69382;DHT22;56560;50.692;12.844;2023-04-25T09:10:55;10.00;62.80
69382;DHT22;56560;50.692;12.844;2023-04-25T09:13:28;9.90;61.90
69382;DHT22;56560;50.692;12.844;2023-04-25T09:15:56;9.70;61.80
69382;DHT22;56560;50.692;12.844;2023-04-25T09:18:40;9.50;62.70
69382;DHT22;56560;50.692;12.844;2023-04-25T09:21:10;9.60;62.90
69382;DHT22;56560;50.692;12.844;2023-04-25T09:23:49;9.90;63.60
69382;DHT22;56560;50.692;12.844;2023-04-25T09:26:18;10.30;61.60
69382;DHT22;56560;50.692;12.844;2023-04-25T09:28:44;10.70;59.80
69382;DHT22;56560;50.692;12.844;2023-04-25T09:31:11;11.10;58.10
69382;DHT22;56560;50.692;12.844;2023-04-25T09:33:37;11.50;58.20
69382;DHT22;56560;50.692;12.844;2023-04-25T09:36:08;12.10;56.80
69382;DHT22;56560;50.692;12.844;2023-04-25T09:38:42;12.60;55.60
69382;DHT22;56560;50.692;12.844;2023-04-25T09:41:08;12.60;54.30
69382;DHT22;56560;50.692;12.844;2023-04-25T09:43:36;12.30;55.20
69382;DHT22;56560;50.692;12.844;2023-04-25T09:46:02;11.60;55.20
69382;DHT22;56560;50.692;12.844;2023-04-25T09:48:29;10.90;58.30
69382;DHT22;56560;50.692;12.844;2023-04-25T09:51:12;10.60;58.80
69382;DHT22;56560;50.692;12.844;2023-04-25T09:53:42;10.50;58.00
69382;DHT22;56560;50.692;12.844;2023-04-25T09:56:10;10.10;59.80
69382;DHT22;56560;50.692;12.844;2023-04-25T09:58:37;10.10;60.70
69382;DHT22;56560;50.692;12.844;2023-04-25T10:01:06;9.90;60.80
69382;DHT22;56560;50.692;12.844;2023-04-25T10:03:35;9.70;60.80
69382;DHT22;56560;50.692;12.844;2023-04-25T10:06:02;9.50;61.00
69382;DHT22;56560;50.692;12.844;2023-04-25T10:08:36;9.30;61.50
69382;DHT22;56560;50.692;12.844;2023-04-25T10:11:04;9.30;62.70
69382;DHT22;56560;50.692;12.844;2023-04-25T10:13:31;9.40;63.40
69382;DHT22;56560;50.692;12.844;2023-04-25T10:15:58;9.90;64.10
69382;DHT22;56560;50.692;12.844;2023-04-25T10:18:25;10.40;61.40
69382;DHT22;56560;50.692;12.844;2023-04-25T10:21:01;10.80;59.60
69382;DHT22;56560;50.692;12.844;2023-04-25T10:23:27;11.20;59.50
69382;DHT22;56560;50.692;12.844;2023-04-25T10:25:54;11.60;59.60
69382;DHT22;56560;50.692;12.844;2023-04-25T10:28:21;12.00;57.90
69382;DHT22;56560;50.692;12.844;2023-04-25T10:31:08;12.10;55.00
69382;DHT22;56560;50.692;12.844;2023-04-25T10:33:40;11.80;55.10
69382;DHT22;56560;50.692;12.844;2023-04-25T10:36:18;11.50;56.00
69382;DHT22;56560;50.692;12.844;2023-04-25T10:38:45;11.20;57.00
69382;DHT22;56560;50.692;12.844;2023-04-25T10:41:12;11.00;57.90
69382;DHT22;56560;50.692;12.844;2023-04-25T10:43:48;10.80;59.10
69382;DHT22;56560;50.692;12.844;2023-04-25T10:46:27;10.90;58.70
69382;DHT22;56560;50.692;12.844;2023-04-25T10:48:55;10.90;58.80
69382;DHT22;56560;50.692;12.844;2023-04-25T10:51:25;10.80;58.00
69382;DHT22;56560;50.692;12.844;2023-04-25T10:56:28;10.90;57.80
69382;DHT22;56560;50.692;12.844;2023-04-25T10:59:14;10.90;58.20
69382;DHT22;56560;50.692;12.844;2023-04-25T11:01:49;10.40;58.30
69382;DHT22;56560;50.692;12.844;2023-04-25T11:10:06;9.50;62.80
69382;DHT22;56560;50.692;12.844;2023-04-25T11:12:32;9.40;65.80
69382;DHT22;56560;50.692;12.844;2023-04-25T11:15:02;9.30;65.40
69382;DHT22;56560;50.692;12.844;2023-04-25T11:17:29;9.40;64.80
69382;DHT22;56560;50.692;12.844;2023-04-25T11:19:55;9.40;64.10
69382;DHT22;56560;50.692;12.844;2023-04-25T11:22:26;9.50;65.20
69382;DHT22;56560;50.692;12.844;2023-04-25T11:24:55;10.00;64.70
69382;DHT22;56560;50.692;12.844;2023-04-25T11:27:21;10.50;61.70
69382;DHT22;56560;50.692;12.844;2023-04-25T11:29:47;10.70;60.60
69382;DHT22;56560;50.692;12.844;2023-04-25T11:32:17;10.80;60.90
69382;DHT22;56560;50.692;12.844;2023-04-25T11:34:43;10.90;60.40
69382;DHT22;56560;50.692;12.844;2023-04-25T11:37:10;10.70;59.80
69382;DHT22;56560;50.692;12.844;2023-04-25T11:39:37;10.50;60.90
69382;DHT22;56560;50.692;12.844;2023-04-25T11:42:04;10.20;61.70
69382;DHT22;56560;50.692;12.844;2023-04-25T11:44:31;9.90;63.70
69382;DHT22;56560;50.692;12.844;2023-04-25T11:46:57;9.70;63.00
69382;DHT22;56560;50.692;12.844;2023-04-25T11:49:23;9.60;63.40
69382;DHT22;56560;50.692;12.844;2023-04-25T11:51:50;9.60;63.30
69382;DHT22;56560;50.692;12.844;2023-04-25T11:54:18;9.70;63.20
69382;DHT22;56560;50.692;12.844;2023-04-25T11:56:45;9.70;64.60
69382;DHT22;56560;50.692;12.844;2023-04-25T11:59:11;9.90;65.70
69382;DHT22;56560;50.692;12.844;2023-04-25T12:01:40;10.40;64.60
69382;DHT22;56560;50.692;12.844;2023-04-25T12:04:14;10.80;62.40
69382;DHT22;56560;50.692;12.844;2023-04-25T12:06:41;10.80;62.20
69382;DHT22;56560;50.692;12.844;2023-04-25T12:09:10;10.60;63.40
69382;DHT22;56560;50.692;12.844;2023-04-25T12:11:47;10.30;64.40
69382;DHT22;56560;50.692;12.844;2023-04-25T12:14:28;10.10;64.60
69382;DHT22;56560;50.692;12.844;2023-04-25T12:17:02;10.00;65.10
69382;DHT22;56560;50.692;12.844;2023-04-25T12:19:36;10.00;64.60
69382;DHT22;56560;50.692;12.844;2023-04-25T12:22:03;10.10;64.50
69382;DHT22;56560;50.692;12.844;2023-04-25T12:24:28;10.30;64.50
69382;DHT22;56560;50.692;12.844;2023-04-25T12:27:03;10.40;62.70
69382;DHT22;56560;50.692;12.844;2023-04-25T12:29:30;10.40;62.60
69382;DHT22;56560;50.692;12.844;2023-04-25T12:31:57;10.20;62.50
69382;DHT22;56560;50.692;12.844;2023-04-25T12:34:24;9.80;64.00
69382;DHT22;56560;50.692;12.844;2023-04-25T12:36:51;9.40;67.20
69382;DHT22;56560;50.692;12.844;2023-04-25T12:39:23;9.20;68.30
69382;DHT22;56560;50.692;12.844;2023-04-25T12:41:52;9.00;70.00
69382;DHT22;56560;50.692;12.844;2023-04-25T12:44:19;8.80;69.60
69382;DHT22;56560;50.692;12.844;2023-04-25T12:46:45;8.40;70.80
69382;DHT22;56560;50.692;12.844;2023-04-25T12:49:11;8.30;71.70
69382;DHT22;56560;50.692;12.844;2023-04-25T12:51:37;8.20;71.50
69382;DHT22;56560;50.692;12.844;2023-04-25T12:54:04;8.00;72.70
69382;DHT22;56560;50.692;12.844;2023-04-25T12:56:31;8.00;74.20
69382;DHT22;56560;50.692;12.844;2023-04-25T12:58:57;7.80;72.90
69382;DHT22;56560;50.692;12.844;2023-04-25T13:01:23;7.80;73.60
69382;DHT22;56560;50.692;12.844;2023-04-25T13:03:49;7.80;73.70
69382;DHT22;56560;50.692;12.844;2023-04-25T13:06:16;7.90;73.10
69382;DHT22;56560;50.692;12.844;2023-04-25T13:08:42;7.90;72.00
69382;DHT22;56560;50.692;12.844;2023-04-25T13:11:08;7.90;71.90
69382;DHT22;56560;50.692;12.844;2023-04-25T13:13:34;7.90;71.10
69382;DHT22;56560;50.692;12.844;2023-04-25T13:16:01;8.10;71.80
69382;DHT22;56560;50.692;12.844;2023-04-25T13:18:31;8.30;71.60
69382;DHT22;56560;50.692;12.844;2023-04-25T13:20:57;8.30;70.70
69382;DHT22;56560;50.692;12.844;2023-04-25T13:23:25;8.40;71.70
69382;DHT22;56560;50.692;12.844;2023-04-25T13:25:51;8.40;70.40
69382;DHT22;56560;50.692;12.844;2023-04-25T13:28:17;8.40;69.80
69382;DHT22;56560;50.692;12.844;2023-04-25T13:30:43;8.30;69.30
69382;DHT22;56560;50.692;12.844;2023-04-25T13:33:08;8.20;70.20
69382;DHT22;56560;50.692;12.844;2023-04-25T13:35:35;8.00;69.90
69382;DHT22;56560;50.692;12.844;2023-04-25T13:38:01;7.80;70.60
69382;DHT22;56560;50.692;12.844;2023-04-25T13:40:27;7.60;71.30
69382;DHT22;56560;50.692;12.844;2023-04-25T13:42:53;7.60;71.80
69382;DHT22;56560;50.692;12.844;2023-04-25T13:45:19;7.80;71.40
69382;DHT22;56560;50.692;12.844;2023-04-25T13:47:45;8.20;71.50
69382;DHT22;56560;50.692;12.844;2023-04-25T13:50:11;8.60;68.90
69382;DHT22;56560;50.692;12.844;2023-04-25T13:52:37;9.00;67.60
69382;DHT22;56560;50.692;12.844;2023-04-25T13:55:03;9.30;66.90
69382;DHT22;56560;50.692;12.844;2023-04-25T13:57:30;9.20;66.00
69382;DHT22;56560;50.692;12.844;2023-04-25T13:59:59;9.50;66.90
69382;DHT22;56560;50.692;12.844;2023-04-25T14:02:25;9.90;66.70
69382;DHT22;56560;50.692;12.844;2023-04-25T14:04:51;10.30;63.70
69382;DHT22;56560;50.692;12.844;2023-04-25T14:07:18;10.60;63.00
69382;DHT22;56560;50.692;12.844;2023-04-25T14:09:44;11.00;61.20
69382;DHT22;56560;50.692;12.844;2023-04-25T14:12:10;11.40;60.60
69382;DHT22;56560;50.692;12.844;2023-04-25T14:14:36;12.00;59.40
69382;DHT22;56560;50.692;12.844;2023-04-25T14:17:03;12.60;59.40
69382;DHT22;56560;50.692;12.844;2023-04-25T14:19:29;13.00;57.40
69382;DHT22;56560;50.692;12.844;2023-04-25T14:21:55;13.50;56.30
69382;DHT22;56560;50.692;12.844;2023-04-25T14:24:20;13.50;53.90
69382;DHT22;56560;50.692;12.844;2023-04-25T14:26:46;13.20;54.20
69382;DHT22;56560;50.692;12.844;2023-04-25T14:29:12;13.30;55.80
69382;DHT22;56560;50.692;12.844;2023-04-25T14:31:38;13.50;55.70
69382;DHT22;56560;50.692;12.844;2023-04-25T14:34:05;13.70;53.90
69382;DHT22;56560;50.692;12.844;2023-04-25T14:36:31;13.80;52.70
69382;DHT22;56560;50.692;12.844;2023-04-25T14:38:57;14.00;53.10
69382;DHT22;56560;50.692;12.844;2023-04-25T14:41:24;14.10;51.70
69382;DHT22;56560;50.692;12.844;2023-04-25T14:43:50;14.00;50.00
69382;DHT22;56560;50.692;12.844;2023-04-25T14:46:16;13.30;52.10
69382;DHT22;56560;50.692;12.844;2023-04-25T14:48:42;12.60;54.30
69382;DHT22;56560;50.692;12.844;2023-04-25T14:51:07;11.90;55.20
69382;DHT22;56560;50.692;12.844;2023-04-25T14:53:33;11.00;58.30
69382;DHT22;56560;50.692;12.844;2023-04-25T14:55:59;10.20;63.90
69382;DHT22;56560;50.692;12.844;2023-04-25T14:58:24;9.10;64.20
69382;DHT22;56560;50.692;12.844;2023-04-25T15:00:50;8.30;68.50
69382;DHT22;56560;50.692;12.844;2023-04-25T15:03:16;7.90;68.80
69382;DHT22;56560;50.692;12.844;2023-04-25T15:05:42;7.60;66.50
69382;DHT22;56560;50.692;12.844;2023-04-25T15:08:08;7.50;69.10
69382;DHT22;56560;50.692;12.844;2023-04-25T15:10:34;7.70;69.50
69382;DHT22;56560;50.692;12.844;2023-04-25T15:13:00;7.90;70.90
69382;DHT22;56560;50.692;12.844;2023-04-25T15:15:26;8.00;70.90
69382;DHT22;56560;50.692;12.844;2023-04-25T15:17:52;8.00;69.00
69382;DHT22;56560;50.692;12.844;2023-04-25T15:20:20;8.00;68.80
69382;DHT22;56560;50.692;12.844;2023-04-25T15:22:46;8.00;70.80
69382;DHT22;56560;50.692;12.844;2023-04-25T15:25:14;8.10;68.10
69382;DHT22;56560;50.692;12.844;2023-04-25T15:27:43;8.40;68.00
69382;DHT22;56560;50.692;12.844;2023-04-25T15:30:16;8.60;67.60
69382;DHT22;56560;50.692;12.844;2023-04-25T15:32:43;8.60;66.70
69382;DHT22;56560;50.692;12.844;2023-04-25T15:35:09;8.60;67.60